createdAt,value
2022-08-17T00:00:08.847Z,8.2
2022-08-17T00:01:12.869Z,7.8
2022-08-17T00:02:16.996Z,7.6
2022-08-17T00:03:14.084Z,7.4
2022-08-17T00:04:11.859Z,7.5
2022-08-17T00:05:08.268Z,7.0
2022-08-17T00:06:09.696Z,7.6
2022-08-17T00:07:08.121Z,8.5
2022-08-17T00:08:08.550Z,7.8
2022-08-17T00:09:08.441Z,7.5
2022-08-17T00:10:08.695Z,7.6
2022-08-17T00:11:09.780Z,8.0
2022-08-17T00:12:42.083Z,7.5
2022-08-17T00:13:09.864Z,6.7
2022-08-17T00:14:12.878Z,7.6
2022-08-17T00:15:10.550Z,7.5
2022-08-17T00:16:10.583Z,7.9
2022-08-17T00:17:08.307Z,8.4
2022-08-17T00:19:01.627Z,8.1
2022-08-17T00:19:09.552Z,7.0
2022-08-17T00:20:09.106Z,7.4
2022-08-17T00:21:10.552Z,7.4
2022-08-17T00:22:32.001Z,8.0
2022-08-17T00:23:10.322Z,7.8
2022-08-17T00:24:07.877Z,7.9
2022-08-17T00:25:10.955Z,7.2
2022-08-17T00:26:08.712Z,7.6
2022-08-17T00:27:08.170Z,7.6
2022-08-17T00:28:08.072Z,7.6
2022-08-17T00:29:08.251Z,7.7
2022-08-17T00:30:09.634Z,7.7
2022-08-17T00:31:08.860Z,6.8
2022-08-17T00:33:15.012Z,8.7
2022-08-17T00:33:16.630Z,7.4
2022-08-17T00:34:08.631Z,8.9
2022-08-17T00:35:09.186Z,7.6
2022-08-17T00:36:08.987Z,7.6
2022-08-17T00:37:08.509Z,7.5
2022-08-17T00:38:08.657Z,7.9
2022-08-17T00:39:08.164Z,7.4
2022-08-17T00:40:10.159Z,8.0
2022-08-17T00:41:12.482Z,7.2
2022-08-17T00:42:12.084Z,7.4
2022-08-17T00:43:29.407Z,7.1
2022-08-17T00:44:08.681Z,7.8
2022-08-17T00:45:10.249Z,7.6
2022-08-17T00:46:09.936Z,7.7
2022-08-17T00:47:08.009Z,7.5
2022-08-17T00:48:29.134Z,5.7
2022-08-17T00:49:09.090Z,8.0
2022-08-17T00:50:09.312Z,7.9
2022-08-17T00:51:16.893Z,6.8
2022-08-17T00:52:12.205Z,6.5
2022-08-17T00:53:08.726Z,7.7
2022-08-17T00:54:17.908Z,8.0
2022-08-17T00:55:08.857Z,7.5
2022-08-17T00:56:11.108Z,8.1
2022-08-17T00:57:13.243Z,7.8
2022-08-17T00:58:09.318Z,6.2
2022-08-17T00:59:09.374Z,6.8
2022-08-17T01:00:10.939Z,8.0
2022-08-17T01:01:08.943Z,7.0
2022-08-17T01:02:10.975Z,7.1
2022-08-17T01:03:11.924Z,7.8
2022-08-17T01:04:09.755Z,7.3
2022-08-17T01:05:13.450Z,7.7
2022-08-17T01:06:08.555Z,7.9
2022-08-17T01:07:08.543Z,7.4
2022-08-17T01:08:09.798Z,6.5
2022-08-17T01:09:07.926Z,7.5
2022-08-17T01:10:58.586Z,7.9
2022-08-17T01:11:08.395Z,7.3
2022-08-17T01:12:09.493Z,7.1
2022-08-17T01:13:08.612Z,7.8
2022-08-17T01:14:07.874Z,7.7
2022-08-17T01:15:08.346Z,7.3
2022-08-17T01:16:12.797Z,7.8
2022-08-17T01:17:08.890Z,6.6
2022-08-17T01:18:09.518Z,7.5
2022-08-17T01:19:15.650Z,6.6
2022-08-17T01:20:09.070Z,7.4
2022-08-17T01:21:13.139Z,8.1
2022-08-17T01:22:13.075Z,7.8
2022-08-17T01:23:08.057Z,7.8
2022-08-17T01:24:08.802Z,6.9
2022-08-17T01:25:09.154Z,5.7
2022-08-17T01:26:08.369Z,7.2
2022-08-17T01:27:10.245Z,7.1
2022-08-17T01:28:07.980Z,8.2
2022-08-17T01:29:09.024Z,7.4
2022-08-17T01:30:57.284Z,7.0
2022-08-17T01:31:08.577Z,7.4
2022-08-17T01:32:08.100Z,8.1
2022-08-17T01:33:07.931Z,6.5
2022-08-17T01:34:09.436Z,7.0
2022-08-17T01:35:08.000Z,7.8
2022-08-17T01:36:08.883Z,8.1
2022-08-17T01:37:09.380Z,7.0
2022-08-17T01:38:08.403Z,7.5
2022-08-17T01:39:11.038Z,7.0
2022-08-17T01:40:27.891Z,6.3
2022-08-17T01:41:10.703Z,6.8
2022-08-17T01:42:13.431Z,7.0
2022-08-17T01:43:16.816Z,7.4
2022-08-17T01:44:09.540Z,6.7
2022-08-17T01:45:10.215Z,7.5
2022-08-17T01:46:08.887Z,6.7
2022-08-17T01:47:08.567Z,6.8
2022-08-17T01:48:09.340Z,7.1
2022-08-17T01:49:09.976Z,7.1
2022-08-17T01:50:10.280Z,6.9
2022-08-17T01:51:08.406Z,7.7
2022-08-17T01:52:09.724Z,6.6
2022-08-17T01:53:14.353Z,7.2
2022-08-17T01:54:10.258Z,7.3
2022-08-17T01:55:10.111Z,7.3
2022-08-17T01:56:09.601Z,7.1
2022-08-17T01:57:08.282Z,6.8
2022-08-17T01:58:07.936Z,6.3
2022-08-17T01:59:09.129Z,5.9
2022-08-17T02:00:08.563Z,7.1
2022-08-17T02:01:08.741Z,6.6
2022-08-17T02:02:08.040Z,7.3
2022-08-17T02:03:07.916Z,6.8
2022-08-17T02:04:08.588Z,7.6
2022-08-17T02:05:08.411Z,7.0
2022-08-17T02:06:27.094Z,7.3
2022-08-17T02:07:08.096Z,7.7
2022-08-17T02:08:07.902Z,6.6
2022-08-17T02:09:09.170Z,6.3
2022-08-17T02:10:18.966Z,6.5
2022-08-17T02:11:11.340Z,6.5
2022-08-17T02:12:38.396Z,6.4
2022-08-17T02:13:07.915Z,6.5
2022-08-17T02:14:09.267Z,6.7
2022-08-17T02:15:08.765Z,6.8
2022-08-17T02:16:08.260Z,6.9
2022-08-17T02:17:08.268Z,6.2
2022-08-17T02:18:08.470Z,7.1
2022-08-17T02:19:13.468Z,7.0
2022-08-17T02:20:08.963Z,6.1
2022-08-17T02:21:08.456Z,6.9
2022-08-17T02:22:08.204Z,6.6
2022-08-17T02:23:09.213Z,7.1
2022-08-17T02:24:10.717Z,6.1
2022-08-17T02:25:10.175Z,7.1
2022-08-17T02:26:08.292Z,7.6
2022-08-17T02:27:08.767Z,7.0
2022-08-17T02:28:08.820Z,6.8
2022-08-17T02:29:08.231Z,6.8
2022-08-17T02:31:01.278Z,6.8
2022-08-17T02:31:09.459Z,6.9
2022-08-17T02:32:12.993Z,7.9
2022-08-17T02:33:09.205Z,7.4
2022-08-17T02:34:08.623Z,7.6
2022-08-17T02:35:08.512Z,6.0
2022-08-17T02:36:08.514Z,7.2
2022-08-17T02:37:08.000Z,6.7
2022-08-17T02:38:08.807Z,7.3
2022-08-17T02:39:09.090Z,7.3
2022-08-17T02:40:08.312Z,6.8
2022-08-17T02:41:08.656Z,6.4
2022-08-17T02:42:08.612Z,6.6
2022-08-17T02:43:08.443Z,7.0
2022-08-17T02:44:08.187Z,5.7
2022-08-17T02:45:09.558Z,6.6
2022-08-17T02:46:08.692Z,6.5
2022-08-17T02:47:09.259Z,7.2
2022-08-17T02:48:08.241Z,6.8
2022-08-17T02:49:08.095Z,6.9
2022-08-17T02:50:09.100Z,6.7
2022-08-17T02:51:08.790Z,6.4
2022-08-17T02:52:08.473Z,6.7
2022-08-17T02:53:08.369Z,6.2
2022-08-17T02:54:41.765Z,6.0
2022-08-17T02:55:10.102Z,7.6
2022-08-17T02:56:08.633Z,6.1
2022-08-17T02:57:09.026Z,7.4
2022-08-17T02:58:09.342Z,6.5
2022-08-17T02:59:08.102Z,6.0
2022-08-17T03:00:10.158Z,6.5
2022-08-17T03:01:09.175Z,7.0
2022-08-17T03:02:10.068Z,7.1
2022-08-17T03:03:09.103Z,6.2
2022-08-17T03:04:08.109Z,7.5
2022-08-17T03:05:09.227Z,6.7
2022-08-17T03:06:08.725Z,6.8
2022-08-17T03:07:08.447Z,7.0
2022-08-17T03:08:13.247Z,6.9
2022-08-17T03:09:08.123Z,6.9
2022-08-17T03:10:08.516Z,6.8
2022-08-17T03:11:08.741Z,7.0
2022-08-17T03:12:10.266Z,6.9
2022-08-17T03:13:08.476Z,7.6
2022-08-17T03:14:08.073Z,7.9
2022-08-17T03:15:12.450Z,6.7
2022-08-17T03:16:08.803Z,7.1
2022-08-17T03:17:09.476Z,6.9
2022-08-17T03:18:08.191Z,6.8
2022-08-17T03:19:07.989Z,5.9
2022-08-17T03:20:09.021Z,5.8
2022-08-17T03:21:08.648Z,6.8
2022-08-17T03:22:19.825Z,7.5
2022-08-17T03:23:08.793Z,6.6
2022-08-17T03:24:08.977Z,7.2
2022-08-17T03:25:10.711Z,6.0
2022-08-17T03:26:12.205Z,5.4
2022-08-17T03:27:08.332Z,5.7
2022-08-17T03:28:08.847Z,6.3
2022-08-17T03:29:07.978Z,6.6
2022-08-17T03:30:09.332Z,7.1
2022-08-17T03:31:08.582Z,6.7
2022-08-17T03:32:11.519Z,6.8
2022-08-17T03:33:08.683Z,6.9
2022-08-17T03:34:08.004Z,6.6
2022-08-17T03:35:09.269Z,5.9
2022-08-17T03:36:08.675Z,6.5
2022-08-17T03:37:08.400Z,7.1
2022-08-17T03:38:08.861Z,6.2
2022-08-17T03:39:08.377Z,7.0
2022-08-17T03:40:09.272Z,6.8
2022-08-17T03:41:08.021Z,6.8
2022-08-17T03:42:32.123Z,6.0
2022-08-17T03:43:08.672Z,6.4
2022-08-17T03:44:08.446Z,6.4
2022-08-17T03:45:10.644Z,6.8
2022-08-17T03:46:10.761Z,7.1
2022-08-17T03:47:08.716Z,6.7
2022-08-17T03:48:09.002Z,6.8
2022-08-17T03:49:08.514Z,6.0
2022-08-17T03:50:10.555Z,6.9
2022-08-17T03:51:14.670Z,5.6
2022-08-17T03:52:08.755Z,6.4
2022-08-17T03:53:13.942Z,6.4
2022-08-17T03:54:09.085Z,6.5
2022-08-17T03:55:08.182Z,6.7
2022-08-17T03:56:08.052Z,5.6
2022-08-17T03:57:09.479Z,6.7
2022-08-17T03:58:08.516Z,7.4
2022-08-17T03:59:20.942Z,6.0
2022-08-17T04:00:08.511Z,6.1
2022-08-17T04:01:08.400Z,6.3
2022-08-17T04:02:10.404Z,4.7
2022-08-17T04:03:08.009Z,5.9
2022-08-17T04:04:09.144Z,5.9
2022-08-17T04:05:08.589Z,5.9
2022-08-17T04:06:08.414Z,6.5
2022-08-17T04:07:08.286Z,6.4
2022-08-17T04:08:08.925Z,5.2
2022-08-17T04:09:09.176Z,5.7
2022-08-17T04:10:08.641Z,5.8
2022-08-17T04:11:08.773Z,5.6
2022-08-17T04:12:08.415Z,6.3
2022-08-17T04:13:08.774Z,6.0
2022-08-17T04:14:08.939Z,6.1
2022-08-17T04:15:08.834Z,7.0
2022-08-17T04:16:08.397Z,6.5
2022-08-17T04:17:08.280Z,6.8
2022-08-17T04:18:08.013Z,6.1
2022-08-17T04:19:08.700Z,6.2
2022-08-17T04:20:09.143Z,6.1
2022-08-17T04:21:08.634Z,5.8
2022-08-17T04:22:08.175Z,6.1
2022-08-17T04:23:09.289Z,5.2
2022-08-17T04:24:08.752Z,6.0
2022-08-17T04:25:13.334Z,5.8
2022-08-17T04:26:08.396Z,5.5
2022-08-17T04:27:08.218Z,6.2
2022-08-17T04:28:14.577Z,6.5
2022-08-17T04:29:07.906Z,6.1
2022-08-17T04:30:09.099Z,5.9
2022-08-17T04:31:09.585Z,5.3
2022-08-17T04:32:08.224Z,6.0
2022-08-17T04:33:10.241Z,5.9
2022-08-17T04:34:09.044Z,6.4
2022-08-17T04:35:09.046Z,4.3
2022-08-17T04:36:09.111Z,6.1
2022-08-17T04:37:08.277Z,6.2
2022-08-17T04:38:09.395Z,6.2
2022-08-17T04:39:07.883Z,6.1
2022-08-17T04:40:09.270Z,5.6
2022-08-17T04:41:08.722Z,5.8
2022-08-17T04:42:08.235Z,6.4
2022-08-17T04:43:09.903Z,5.7
2022-08-17T04:44:07.846Z,6.0
2022-08-17T04:45:09.011Z,6.1
2022-08-17T04:46:11.142Z,6.5
2022-08-17T04:47:08.256Z,6.6
2022-08-17T04:48:08.148Z,5.5
2022-08-17T04:49:09.098Z,5.9
2022-08-17T04:50:08.835Z,5.5
2022-08-17T04:51:10.275Z,5.3
2022-08-17T04:52:08.192Z,5.8
2022-08-17T04:53:08.363Z,6.1
2022-08-17T04:54:16.396Z,5.7
2022-08-17T04:55:08.627Z,7.1
2022-08-17T04:56:11.773Z,5.4
2022-08-17T04:57:08.581Z,6.1
2022-08-17T04:58:08.397Z,5.1
2022-08-17T04:59:12.772Z,6.2
2022-08-17T05:00:09.234Z,6.7
2022-08-17T05:01:08.588Z,6.0
2022-08-17T05:02:08.305Z,5.6
2022-08-17T05:03:08.036Z,5.5
2022-08-17T05:04:18.420Z,5.1
2022-08-17T05:05:08.578Z,6.0
2022-08-17T05:06:08.771Z,5.7
2022-08-17T05:07:08.262Z,5.7
2022-08-17T05:08:08.302Z,6.0
2022-08-17T05:09:07.938Z,5.5
2022-08-17T05:10:08.821Z,5.7
2022-08-17T05:11:08.380Z,6.1
2022-08-17T05:12:08.254Z,5.7
2022-08-17T05:13:13.136Z,4.8
2022-08-17T05:14:08.336Z,5.6
2022-08-17T05:15:14.297Z,5.2
2022-08-17T05:16:08.034Z,4.8
2022-08-17T05:17:11.243Z,4.9
2022-08-17T05:18:08.497Z,5.0
2022-08-17T05:19:08.278Z,5.7
2022-08-17T05:20:08.436Z,6.0
2022-08-17T05:21:07.920Z,5.6
2022-08-17T05:22:08.605Z,5.5
2022-08-17T05:23:10.023Z,4.9
2022-08-17T05:24:16.718Z,5.3
2022-08-17T05:25:08.325Z,5.4
2022-08-17T05:26:10.324Z,4.8
2022-08-17T05:27:08.596Z,5.3
2022-08-17T05:28:08.628Z,5.3
2022-08-17T05:29:08.299Z,5.5
2022-08-17T05:30:08.332Z,5.5
2022-08-17T05:31:08.253Z,5.0
2022-08-17T05:32:37.952Z,5.1
2022-08-17T05:33:09.874Z,5.1
2022-08-17T05:34:08.295Z,4.8
2022-08-17T05:35:08.281Z,5.2
2022-08-17T05:36:09.545Z,5.5
2022-08-17T05:37:08.591Z,5.4
2022-08-17T05:38:08.396Z,5.5
2022-08-17T05:39:08.356Z,5.6
2022-08-17T05:40:08.411Z,5.9
2022-08-17T05:41:08.701Z,4.5
2022-08-17T05:42:08.524Z,4.9
2022-08-17T05:43:12.219Z,5.4
2022-08-17T05:44:08.222Z,5.0
2022-08-17T05:45:08.849Z,5.4
2022-08-17T05:46:18.021Z,5.8
2022-08-17T05:47:09.917Z,4.8
2022-08-17T05:48:08.402Z,4.9
2022-08-17T05:49:08.504Z,5.9
2022-08-17T05:50:10.090Z,6.0
2022-08-17T05:51:13.519Z,4.9
2022-08-17T05:52:18.770Z,4.9
2022-08-17T05:53:18.873Z,4.7
2022-08-17T05:54:18.920Z,5.3
2022-08-17T05:55:18.407Z,5.0
2022-08-17T05:56:27.956Z,5.1
2022-08-17T05:57:26.324Z,4.5
2022-08-17T05:58:26.002Z,4.9
2022-08-17T05:59:18.906Z,4.9
2022-08-17T06:00:19.282Z,4.7
2022-08-17T06:01:13.549Z,5.5
2022-08-17T06:02:18.880Z,5.3
2022-08-17T06:03:15.897Z,5.0
2022-08-17T06:04:26.343Z,5.0
2022-08-17T06:05:16.715Z,4.5
2022-08-17T06:06:13.508Z,6.0
2022-08-17T06:07:15.429Z,5.0
2022-08-17T06:08:13.588Z,5.1
2022-08-17T06:09:30.190Z,4.6
2022-08-17T06:10:30.895Z,4.7
2022-08-17T06:11:19.831Z,5.3
2022-08-17T06:12:24.408Z,5.3
2022-08-17T06:13:16.373Z,5.1
2022-08-17T06:14:13.423Z,5.3
2022-08-17T06:15:13.207Z,4.9
2022-08-17T06:16:28.255Z,4.1
2022-08-17T06:17:10.966Z,4.9
2022-08-17T06:18:09.623Z,5.3
2022-08-17T06:19:31.435Z,5.5
2022-08-17T06:20:11.704Z,5.0
2022-08-17T06:21:10.670Z,4.6
2022-08-17T06:22:10.361Z,5.1
2022-08-17T06:23:11.597Z,4.7
2022-08-17T06:24:18.937Z,5.0
2022-08-17T06:25:21.918Z,4.9
2022-08-17T06:26:11.859Z,5.2
2022-08-17T06:27:12.792Z,4.9
2022-08-17T06:28:13.982Z,5.2
2022-08-17T06:29:24.941Z,5.5
2022-08-17T06:30:13.111Z,4.6
2022-08-17T06:31:12.955Z,4.6
2022-08-17T06:32:09.673Z,5.3
2022-08-17T06:33:12.992Z,5.1
2022-08-17T06:34:09.742Z,5.0
2022-08-17T06:35:10.552Z,4.5
2022-08-17T06:36:18.919Z,5.4
2022-08-17T06:37:15.916Z,4.9
2022-08-17T06:38:37.166Z,4.9
2022-08-17T06:39:27.491Z,5.4
2022-08-17T06:40:16.458Z,4.9
2022-08-17T06:41:13.356Z,5.3
2022-08-17T06:42:58.808Z,5.5
2022-08-17T06:43:13.493Z,5.3
2022-08-17T06:44:12.787Z,5.3
2022-08-17T06:45:13.455Z,4.6
2022-08-17T06:46:26.799Z,4.9
2022-08-17T06:47:13.082Z,5.3
2022-08-17T06:48:12.896Z,4.9
2022-08-17T06:49:22.419Z,5.7
2022-08-17T06:50:20.641Z,4.7
2022-08-17T06:51:13.267Z,5.2
2022-08-17T06:52:37.598Z,4.7
2022-08-17T06:53:13.360Z,5.8
2022-08-17T06:54:16.396Z,5.7
2022-08-17T06:55:18.691Z,5.5
2022-08-17T06:56:12.085Z,5.0
2022-08-17T06:57:13.057Z,4.9
2022-08-17T06:58:15.571Z,5.9
2022-08-17T06:59:10.482Z,5.3
2022-08-17T07:00:12.874Z,5.1
2022-08-17T07:01:13.188Z,4.9
2022-08-17T07:02:08.966Z,5.0
2022-08-17T07:03:12.795Z,4.9
2022-08-17T07:04:15.981Z,4.9
2022-08-17T07:05:08.712Z,5.6
2022-08-17T07:06:15.916Z,4.7
2022-08-17T07:07:09.614Z,5.6
2022-08-17T07:08:13.701Z,6.0
2022-08-17T07:09:17.350Z,5.1
2022-08-17T07:10:09.072Z,4.9
2022-08-17T07:11:13.354Z,5.3
2022-08-17T07:12:13.816Z,4.5
2022-08-17T07:13:15.279Z,5.0
2022-08-17T07:14:26.358Z,4.7
2022-08-17T07:15:18.547Z,4.9
2022-08-17T07:16:26.991Z,4.4
2022-08-17T07:17:10.415Z,5.0
2022-08-17T07:18:08.684Z,5.3
2022-08-17T07:19:08.140Z,5.4
2022-08-17T07:20:10.543Z,6.2
2022-08-17T07:21:17.564Z,4.8
2022-08-17T07:22:12.809Z,4.8
2022-08-17T07:23:16.410Z,5.4
2022-08-17T07:24:29.457Z,4.5
2022-08-17T07:25:09.767Z,5.5
2022-08-17T07:26:08.577Z,5.6
2022-08-17T07:27:10.358Z,5.2
2022-08-17T07:28:08.194Z,5.3
2022-08-17T07:29:09.277Z,5.9
2022-08-17T07:30:10.679Z,5.2
2022-08-17T07:31:08.161Z,5.0
2022-08-17T07:32:10.055Z,5.4
2022-08-17T07:33:12.572Z,5.3
2022-08-17T07:34:10.064Z,5.6
2022-08-17T07:35:10.911Z,5.6
2022-08-17T07:36:12.900Z,6.1
2022-08-17T07:37:08.733Z,5.2
2022-08-17T07:38:24.750Z,5.4
2022-08-17T07:39:09.180Z,5.6
2022-08-17T07:40:16.806Z,5.2
2022-08-17T07:41:09.172Z,5.5
2022-08-17T07:42:09.209Z,6.1
2022-08-17T07:43:21.895Z,5.7
2022-08-17T07:44:15.260Z,5.9
2022-08-17T07:45:08.213Z,5.8
2022-08-17T07:46:15.462Z,6.0
2022-08-17T07:47:13.105Z,5.4
2022-08-17T07:48:12.278Z,6.2
2022-08-17T07:49:13.670Z,6.2
2022-08-17T07:50:27.527Z,5.3
2022-08-17T07:51:27.868Z,6.5
2022-08-17T07:52:47.522Z,6.3
2022-08-17T07:53:14.819Z,6.6
2022-08-17T07:54:21.404Z,6.1
2022-08-17T07:55:28.206Z,5.6
2022-08-17T07:56:08.350Z,5.6
2022-08-17T07:57:16.458Z,6.5
2022-08-17T07:58:13.303Z,5.7
2022-08-17T07:59:23.501Z,6.3
2022-08-17T08:00:14.701Z,6.7
2022-08-17T08:01:09.919Z,6.6
2022-08-17T08:02:31.804Z,6.1
2022-08-17T08:03:13.324Z,6.2
2022-08-17T08:04:19.377Z,6.1
2022-08-17T08:05:46.662Z,5.5
2022-08-17T08:06:13.181Z,6.4
2022-08-17T08:07:13.274Z,6.2
2022-08-17T08:08:30.424Z,6.7
2022-08-17T08:09:13.503Z,6.1
2022-08-17T08:10:13.382Z,6.2
2022-08-17T08:11:09.903Z,5.5
2022-08-17T08:12:24.898Z,5.8
2022-08-17T08:13:14.417Z,5.9
2022-08-17T08:14:21.945Z,6.2
2022-08-17T08:15:12.931Z,7.0
2022-08-17T08:16:16.450Z,7.1
2022-08-17T08:17:09.222Z,6.9
2022-08-17T08:18:38.549Z,6.1
2022-08-17T08:19:08.615Z,5.9
2022-08-17T08:20:35.047Z,5.7
2022-08-17T08:21:10.457Z,6.1
2022-08-17T08:22:11.755Z,6.3
2022-08-17T08:23:26.391Z,7.0
2022-08-17T08:24:15.926Z,5.8
2022-08-17T08:25:15.440Z,6.8
2022-08-17T08:26:18.294Z,6.1
2022-08-17T08:27:15.892Z,5.7
2022-08-17T08:28:18.899Z,6.1
2022-08-17T08:29:18.909Z,5.9
2022-08-17T08:30:11.082Z,6.1
2022-08-17T08:31:26.847Z,5.5
2022-08-17T08:32:12.609Z,6.0
2022-08-17T08:33:24.935Z,6.2
2022-08-17T08:35:00.581Z,6.5
2022-08-17T08:35:25.441Z,5.8
2022-08-17T08:37:15.790Z,6.4
2022-08-17T08:37:19.289Z,5.8
2022-08-17T08:38:18.912Z,6.0
2022-08-17T08:39:12.989Z,6.4
2022-08-17T08:40:25.846Z,6.2
2022-08-17T08:41:13.439Z,6.9
2022-08-17T08:42:13.259Z,6.0
2022-08-17T08:43:24.925Z,5.7
2022-08-17T08:45:01.121Z,6.7
2022-08-17T08:45:14.992Z,6.3
2022-08-17T08:46:25.416Z,7.1
2022-08-17T08:47:13.293Z,6.2
2022-08-17T08:48:22.970Z,6.2
2022-08-17T08:49:45.204Z,6.9
2022-08-17T08:50:37.039Z,6.2
2022-08-17T08:51:12.627Z,6.5
2022-08-17T08:52:12.784Z,6.9
2022-08-17T08:53:19.424Z,8.0
2022-08-17T08:54:13.320Z,5.8
2022-08-17T08:55:13.182Z,6.0
2022-08-17T08:56:12.870Z,6.1
2022-08-17T08:57:26.725Z,6.4
2022-08-17T08:58:32.093Z,6.0
2022-08-17T08:59:24.458Z,6.4
2022-08-17T09:00:15.284Z,6.5
2022-08-17T09:01:18.957Z,6.2
2022-08-17T09:02:26.354Z,6.5
2022-08-17T09:03:15.933Z,6.5
2022-08-17T09:04:25.483Z,7.2
2022-08-17T09:05:16.228Z,6.2
2022-08-17T09:06:37.776Z,7.0
2022-08-17T09:07:22.419Z,6.8
2022-08-17T09:08:24.947Z,6.9
2022-08-17T09:09:18.923Z,7.2
2022-08-17T09:10:15.425Z,6.5
2022-08-17T09:11:13.229Z,6.4
2022-08-17T09:12:13.028Z,7.5
2022-08-17T09:13:13.218Z,6.7
2022-08-17T09:14:21.133Z,6.9
2022-08-17T09:15:18.943Z,7.0
2022-08-17T09:16:13.208Z,7.0
2022-08-17T09:17:18.618Z,7.5
2022-08-17T09:19:03.171Z,7.0
2022-08-17T09:19:13.385Z,6.9
2022-08-17T09:20:27.939Z,6.1
2022-08-17T09:21:18.172Z,7.0
2022-08-17T09:22:26.834Z,6.9
2022-08-17T09:23:12.601Z,7.0
2022-08-17T09:24:10.692Z,7.4
2022-08-17T09:25:14.304Z,6.8
2022-08-17T09:26:13.473Z,7.4
2022-08-17T09:27:16.293Z,7.1
2022-08-17T09:28:13.085Z,7.0
2022-08-17T09:29:09.860Z,6.6
2022-08-17T09:30:09.899Z,7.3
2022-08-17T09:31:10.841Z,6.9
2022-08-17T09:32:15.935Z,7.5
2022-08-17T09:33:13.074Z,6.9
2022-08-17T09:34:10.405Z,7.5
2022-08-17T09:35:16.568Z,6.5
2022-08-17T09:36:12.936Z,6.4
2022-08-17T09:37:26.874Z,7.6
2022-08-17T09:38:32.625Z,7.5
2022-08-17T09:39:12.512Z,6.4
2022-08-17T09:40:14.921Z,6.8
2022-08-17T09:41:23.986Z,7.7
2022-08-17T09:42:23.691Z,6.6
2022-08-17T09:43:15.959Z,7.2
2022-08-17T09:44:23.010Z,6.9
2022-08-17T09:45:24.982Z,7.6
2022-08-17T09:46:20.906Z,6.7
2022-08-17T09:47:22.007Z,6.6
2022-08-17T09:48:18.883Z,6.4
2022-08-17T09:49:15.075Z,6.9
2022-08-17T09:50:10.179Z,7.3
2022-08-17T09:51:19.456Z,6.7
2022-08-17T09:52:19.913Z,7.4
2022-08-17T09:53:08.433Z,7.7
2022-08-17T09:54:38.014Z,6.1
2022-08-17T09:55:08.565Z,7.1
2022-08-17T09:56:13.732Z,6.7
2022-08-17T09:57:29.150Z,6.0
2022-08-17T09:58:18.958Z,7.0
2022-08-17T09:59:25.002Z,7.5
2022-08-17T10:00:16.269Z,8.1
2022-08-17T10:01:22.019Z,7.1
2022-08-17T10:02:27.453Z,7.2
2022-08-17T10:03:16.499Z,7.3
2022-08-17T10:04:13.483Z,7.0
2022-08-17T10:05:20.769Z,6.8
2022-08-17T10:06:29.954Z,6.7
2022-08-17T10:07:15.995Z,7.4
2022-08-17T10:08:27.461Z,6.9
2022-08-17T10:09:13.011Z,6.3
2022-08-17T10:10:22.790Z,7.8
2022-08-17T10:11:33.910Z,6.9
2022-08-17T10:12:17.476Z,6.2
2022-08-17T10:13:15.996Z,6.0
2022-08-17T10:14:37.860Z,6.9
2022-08-17T10:15:17.415Z,7.1
2022-08-17T10:16:16.120Z,7.2
2022-08-17T10:17:13.332Z,6.8
2022-08-17T10:18:24.962Z,6.9
2022-08-17T10:19:25.032Z,6.5
2022-08-17T10:20:12.892Z,7.3
2022-08-17T10:21:12.957Z,7.4
2022-08-17T10:22:34.509Z,7.2
2022-08-17T10:23:20.855Z,7.7
2022-08-17T10:24:18.472Z,7.9
2022-08-17T10:25:22.879Z,7.5
2022-08-17T10:26:13.904Z,7.3
2022-08-17T10:27:09.736Z,7.3
2022-08-17T10:28:19.760Z,6.3
2022-08-17T10:29:13.391Z,6.9
2022-08-17T10:30:09.835Z,6.9
2022-08-17T10:31:34.230Z,6.7
2022-08-17T10:32:09.698Z,6.3
2022-08-17T10:33:13.067Z,6.9
2022-08-17T10:34:25.913Z,8.2
2022-08-17T10:35:27.998Z,7.0
2022-08-17T10:36:15.977Z,7.4
2022-08-17T10:37:15.994Z,6.6
2022-08-17T10:38:13.042Z,6.2
2022-08-17T10:39:12.819Z,7.5
2022-08-17T10:40:27.014Z,6.9
2022-08-17T10:41:26.408Z,7.2
2022-08-17T10:42:32.481Z,7.5
2022-08-17T10:43:15.965Z,7.8
2022-08-17T10:44:37.347Z,7.5
2022-08-17T10:45:21.961Z,6.7
2022-08-17T10:46:30.628Z,7.8
2022-08-17T10:47:09.984Z,7.5
2022-08-17T10:48:13.344Z,7.1
2022-08-17T10:49:16.006Z,7.4
2022-08-17T10:50:16.049Z,7.4
2022-08-17T10:51:25.994Z,7.2
2022-08-17T10:52:25.207Z,7.5
2022-08-17T10:53:08.602Z,7.5
2022-08-17T10:54:27.979Z,7.6
2022-08-17T10:55:14.012Z,6.8
2022-08-17T10:56:16.000Z,7.0
2022-08-17T10:57:13.042Z,6.7
2022-08-17T10:58:18.511Z,7.2
2022-08-17T10:59:08.630Z,8.0
2022-08-17T11:00:18.980Z,6.8
2022-08-17T11:01:08.752Z,6.6
2022-08-17T11:02:24.379Z,7.6
2022-08-17T11:03:15.427Z,7.6
2022-08-17T11:04:13.436Z,8.0
2022-08-17T11:05:12.884Z,7.0
2022-08-17T11:06:22.487Z,8.1
2022-08-17T11:07:15.985Z,8.8
2022-08-17T11:08:13.115Z,7.6
2022-08-17T11:09:30.431Z,8.4
2022-08-17T11:10:25.915Z,8.0
2022-08-17T11:11:19.475Z,8.3
2022-08-17T11:12:18.983Z,8.6
2022-08-17T11:13:13.230Z,7.9
2022-08-17T11:14:21.976Z,7.1
2022-08-17T11:15:15.499Z,8.2
2022-08-17T11:16:13.483Z,8.0
2022-08-17T11:17:26.449Z,8.6
2022-08-17T11:18:16.026Z,7.4
2022-08-17T11:19:21.976Z,8.5
2022-08-17T11:20:26.530Z,8.1
2022-08-17T11:21:13.077Z,8.0
2022-08-17T11:22:31.291Z,8.4
2022-08-17T11:23:13.100Z,9.6
2022-08-17T11:24:15.696Z,8.7
2022-08-17T11:25:25.514Z,8.9
2022-08-17T11:26:22.615Z,7.5
2022-08-17T11:27:12.878Z,8.2
2022-08-17T11:28:13.618Z,7.8
2022-08-17T11:29:24.668Z,7.2
2022-08-17T11:30:12.716Z,7.5
2022-08-17T11:31:13.021Z,8.9
2022-08-17T11:32:11.207Z,7.8
2022-08-17T11:33:25.030Z,8.6
2022-08-17T11:34:18.682Z,8.0
2022-08-17T11:35:25.521Z,7.9
2022-08-17T11:36:16.017Z,7.6
2022-08-17T11:37:13.624Z,8.3
2022-08-17T11:38:16.332Z,8.3
2022-08-17T11:39:28.066Z,7.5
2022-08-17T11:40:19.154Z,8.2
2022-08-17T11:41:12.906Z,8.0
2022-08-17T11:42:26.934Z,7.9
2022-08-17T11:43:19.007Z,7.7
2022-08-17T11:44:19.006Z,8.6
2022-08-17T11:45:16.247Z,7.6
2022-08-17T11:46:15.656Z,8.8
2022-08-17T11:47:10.062Z,8.4
2022-08-17T11:48:27.678Z,8.6
2022-08-17T11:49:13.393Z,7.7
2022-08-17T11:50:15.515Z,8.8
2022-08-17T11:51:15.513Z,7.8
2022-08-17T11:52:12.113Z,7.7
2022-08-17T11:53:12.952Z,8.1
2022-08-17T11:54:32.725Z,8.2
2022-08-17T11:55:34.513Z,8.4
2022-08-17T11:56:09.875Z,8.1
2022-08-17T11:57:31.009Z,7.2
2022-08-17T11:58:22.029Z,7.9
2022-08-17T11:59:26.495Z,8.6
2022-08-17T12:00:12.917Z,7.1
2022-08-17T12:01:10.426Z,7.6
2022-08-17T12:02:31.545Z,7.7
2022-08-17T12:03:25.104Z,7.8
2022-08-17T12:04:22.058Z,7.3
2022-08-17T12:05:15.517Z,6.7
2022-08-17T12:06:31.149Z,6.5
2022-08-17T12:07:20.549Z,6.3
2022-08-17T12:08:16.557Z,7.1
2022-08-17T12:09:18.725Z,6.7
2022-08-17T12:10:09.246Z,6.9
2022-08-17T12:11:13.088Z,6.7
2022-08-17T12:12:14.737Z,6.6
2022-08-17T12:13:13.407Z,7.3
2022-08-17T12:14:12.612Z,8.2
2022-08-17T12:15:13.227Z,7.9
2022-08-17T12:16:12.296Z,7.4
2022-08-17T12:17:09.187Z,7.8
2022-08-17T12:18:13.517Z,6.9
2022-08-17T12:19:13.314Z,6.3
2022-08-17T12:20:19.583Z,7.2
2022-08-17T12:21:13.382Z,8.0
2022-08-17T12:22:16.544Z,7.2
2022-08-17T12:23:18.246Z,7.9
2022-08-17T12:24:13.679Z,6.7
2022-08-17T12:25:13.531Z,7.9
2022-08-17T12:26:15.611Z,8.0
2022-08-17T12:27:09.481Z,7.5
2022-08-17T12:28:20.677Z,7.1
2022-08-17T12:29:18.419Z,6.7
2022-08-17T12:30:11.965Z,6.8
2022-08-17T12:31:22.223Z,6.8
2022-08-17T12:32:12.841Z,7.3
2022-08-17T12:33:11.809Z,7.8
2022-08-17T12:34:13.540Z,7.0
2022-08-17T12:35:12.954Z,6.8
2022-08-17T12:36:11.964Z,6.8
2022-08-17T12:37:22.079Z,6.6
2022-08-17T12:38:26.797Z,6.9
2022-08-17T12:39:13.911Z,7.2
2022-08-17T12:40:22.411Z,7.1
2022-08-17T12:41:08.710Z,6.8
2022-08-17T12:42:13.424Z,6.5
2022-08-17T12:43:13.222Z,7.2
2022-08-17T12:44:15.540Z,6.8
2022-08-17T12:45:26.454Z,7.0
2022-08-17T12:46:15.011Z,6.5
2022-08-17T12:47:12.119Z,6.6
2022-08-17T12:48:13.026Z,6.9
2022-08-17T12:49:12.598Z,7.0
2022-08-17T12:50:29.192Z,6.3
2022-08-17T12:51:10.994Z,6.9
2022-08-17T12:52:25.085Z,6.9
2022-08-17T12:53:15.464Z,6.3
2022-08-17T12:54:12.963Z,6.8
2022-08-17T12:55:15.544Z,7.0
2022-08-17T12:56:09.719Z,7.2
2022-08-17T12:57:15.557Z,6.9
2022-08-17T12:58:16.102Z,6.7
2022-08-17T12:59:09.711Z,6.4
2022-08-17T13:00:14.126Z,6.8
2022-08-17T13:01:12.999Z,6.5
2022-08-17T13:02:12.794Z,6.9
2022-08-17T13:03:19.602Z,6.5
2022-08-17T13:04:11.301Z,6.9
2022-08-17T13:05:13.074Z,6.1
2022-08-17T13:06:09.028Z,7.1
2022-08-17T13:07:08.895Z,6.7
2022-08-17T13:08:16.042Z,7.0
2022-08-17T13:09:17.294Z,6.5
2022-08-17T13:10:13.122Z,6.8
2022-08-17T13:11:12.927Z,6.2
2022-08-17T13:12:08.808Z,6.3
2022-08-17T13:13:22.053Z,7.0
2022-08-17T13:14:09.039Z,7.1
2022-08-17T13:15:13.145Z,6.5
2022-08-17T13:16:15.545Z,6.4
2022-08-17T13:17:12.842Z,5.8
2022-08-17T13:18:12.971Z,6.2
2022-08-17T13:19:12.932Z,6.6
2022-08-17T13:20:12.598Z,7.1
2022-08-17T13:21:15.556Z,6.3
2022-08-17T13:22:09.873Z,6.1
2022-08-17T13:23:13.393Z,6.6
2022-08-17T13:24:16.047Z,6.2
2022-08-17T13:25:13.485Z,6.1
2022-08-17T13:26:13.267Z,6.1
2022-08-17T13:27:10.767Z,6.5
2022-08-17T13:28:12.980Z,5.8
2022-08-17T13:29:20.412Z,6.7
2022-08-17T13:30:10.456Z,6.3
2022-08-17T13:31:25.563Z,6.1
2022-08-17T13:32:13.890Z,5.9
2022-08-17T13:33:13.230Z,5.9
2022-08-17T13:34:15.473Z,5.5
2022-08-17T13:35:29.638Z,6.5
2022-08-17T13:36:09.062Z,6.0
2022-08-17T13:37:28.004Z,5.9
2022-08-17T13:38:15.304Z,6.4
2022-08-17T13:39:19.087Z,6.5
2022-08-17T13:40:13.243Z,6.3
2022-08-17T13:41:13.051Z,5.8
2022-08-17T13:42:25.993Z,6.1
2022-08-17T13:43:09.541Z,5.9
2022-08-17T13:44:26.457Z,5.4
2022-08-17T13:45:35.602Z,6.0
2022-08-17T13:46:13.024Z,6.3